Time;durP1;ratioP1;P1;durP2;ratioP2;P2;SDS_P1;SDS_P2;PMS_P1;PMS_P2;Temp;Humidity;BMP_temperature;BMP_pressure;BME280_temperature;BME280_humidity;BME280_pressure;Samples;Min_cycle;Max_cycle;Signal;HPM_P1;HPM_P2
2022/02/06 06:00:31;;;;;;;4.80;1.10;;;5.30;93.10;;;;;;6025440;23;20716;31
2022/02/06 06:03:00;;;;;;;4.85;1.00;;;5.30;93.00;;;;;;4878832;29;20023;-79
2022/02/06 06:05:27;;;;;;;4.28;0.80;;;5.30;93.10;;;;;;4881701;29;20053;-77
2022/02/06 06:07:54;;;;;;;4.90;1.10;;;5.30;93.10;;;;;;4879332;29;20389;-78
2022/02/06 06:10:21;;;;;;;6.75;1.30;;;5.30;93.10;;;;;;4886578;29;20132;-78
2022/02/06 06:12:48;;;;;;;5.95;1.38;;;5.30;93.10;;;;;;4899994;29;20565;-77
2022/02/06 06:15:15;;;;;;;3.90;0.98;;;5.30;93.20;;;;;;4887030;29;20135;-80
2022/02/06 06:17:45;;;;;;;5.18;1.17;;;5.30;93.30;;;;;;4881081;29;20133;-79
2022/02/06 06:20:16;;;;;;;4.80;1.10;;;5.30;93.20;;;;;;4881111;29;20410;-81
2022/02/06 06:22:43;;;;;;;5.07;1.00;;;5.30;93.30;;;;;;4881371;29;20057;-79
2022/02/06 06:25:11;;;;;;;4.72;1.10;;;5.30;93.30;;;;;;4881271;29;20467;-79
2022/02/06 06:27:38;;;;;;;5.82;1.02;;;5.30;93.30;;;;;;4879978;29;20056;-77
2022/02/06 06:30:07;;;;;;;3.83;1.00;;;5.40;93.20;;;;;;4876934;29;20140;-80
2022/02/06 06:32:34;;;;;;;3.70;0.90;;;5.40;93.10;;;;;;4881103;29;20049;-78
2022/02/06 06:35:05;;;;;;;3.60;1.10;;;5.40;93.10;;;;;;4880791;29;20071;-80
2022/02/06 06:37:32;;;;;;;4.80;0.98;;;5.40;93.10;;;;;;4881004;29;20053;-78
2022/02/06 06:40:00;;;;;;;3.25;1.08;;;5.40;93.10;;;;;;4880978;29;20136;-81
2022/02/06 06:42:27;;;;;;;6.05;1.05;;;5.40;93.10;;;;;;4881134;29;20049;-77
2022/02/06 06:44:54;;;;;;;3.35;1.15;;;5.40;93.20;;;;;;4880661;29;20051;-77
2022/02/06 06:47:21;;;;;;;4.70;1.05;;;5.40;93.10;;;;;;4873548;29;20132;-77
2022/02/06 06:49:48;;;;;;;4.22;1.10;;;5.40;93.20;;;;;;4881275;29;20497;-78
2022/02/06 06:52:16;;;;;;;4.95;1.27;;;5.40;93.20;;;;;;4881170;29;20056;-78
2022/02/06 06:54:47;;;;;;;6.40;1.20;;;5.40;93.20;;;;;;4881281;29;20132;-76
2022/02/06 06:57:19;;;;;;;6.38;1.00;;;5.50;93.20;;;;;;4880484;29;20045;-79
2022/02/06 07:02:30;;;;;;;;;;;5.50;93.10;;;;;;4915439;29;20071;-77
2022/02/06 07:05:03;;;;;;;6.80;1.10;;;5.50;93.10;;;;;;4918302;29;20029;-78
2022/02/06 07:07:33;;;;;;;5.47;1.20;;;5.50;93.10;;;;;;4918135;29;20146;-78
2022/02/06 07:10:02;;;;;;;5.28;1.20;;;5.60;93.20;;;;;;4902703;29;20155;-78
2022/02/06 07:12:29;;;;;;;3.38;0.95;;;5.50;93.20;;;;;;4901945;29;20052;-78
2022/02/06 07:14:56;;;;;;;5.43;1.30;;;5.50;93.10;;;;;;4917871;29;20127;-78
2022/02/06 07:17:23;;;;;;;4.75;1.17;;;5.60;93.10;;;;;;4918163;29;20059;-77
2022/02/06 07:19:50;;;;;;;4.38;1.50;;;5.60;93.10;;;;;;4918655;29;20051;-79
2022/02/06 07:22:20;;;;;;;3.95;1.10;;;5.60;93.10;;;;;;4918159;29;20139;-76
2022/02/06 07:24:52;;;;;;;3.63;1.02;;;5.70;93.00;;;;;;4917500;29;20478;-78
2022/02/06 07:27:24;;;;;;;3.60;0.93;;;5.70;93.00;;;;;;4917602;29;20597;-80
2022/02/06 07:29:52;;;;;;;4.47;1.10;;;5.70;93.00;;;;;;4917928;29;20056;-78
2022/02/06 07:32:20;;;;;;;3.17;0.90;;;5.80;92.90;;;;;;4917754;29;20052;-81
2022/02/06 07:34:47;;;;;;;5.93;1.25;;;5.80;92.80;;;;;;4917013;29;20079;-80
2022/02/06 07:37:14;;;;;;;3.88;0.90;;;5.80;92.70;;;;;;4917485;29;20136;-78
2022/02/06 07:39:42;;;;;;;5.22;1.30;;;5.90;92.80;;;;;;4917394;29;20131;-79
2022/02/06 07:42:11;;;;;;;4.82;0.98;;;5.90;92.70;;;;;;4906759;29;20473;-77
2022/02/06 07:44:39;;;;;;;2.85;0.90;;;5.90;92.70;;;;;;4915801;29;20059;-78
2022/02/06 07:47:14;;;;;;;4.30;1.00;;;6.00;92.60;;;;;;4917261;29;20107;-77
2022/02/06 07:49:44;;;;;;;6.88;1.30;;;6.00;92.60;;;;;;4902175;29;20111;-77
2022/02/06 07:52:11;;;;;;;3.88;1.00;;;6.00;92.60;;;;;;4916802;29;20071;-79
2022/02/06 07:54:38;;;;;;;5.40;1.52;;;6.10;92.50;;;;;;4914058;29;20569;-78
2022/02/06 07:57:06;;;;;;;4.50;0.90;;;6.10;92.40;;;;;;4903519;29;20048;-77
2022/02/06 07:59:37;;;;;;;6.28;1.02;;;6.10;92.40;;;;;;4902084;29;20089;-77
2022/02/06 08:02:06;;;;;;;4.20;1.08;;;6.20;92.30;;;;;;4916522;29;20526;-78
2022/02/06 08:04:33;;;;;;;4.65;1.08;;;6.20;92.30;;;;;;4916816;29;20131;-78
2022/02/06 08:07:00;;;;;;;4.78;1.17;;;6.20;92.30;;;;;;4916902;29;20054;-78
2022/02/06 08:09:44;;;;;;;2.95;1.00;;;6.30;92.10;;;;;;4916525;29;20068;-79
2022/02/06 08:12:13;;;;;;;5.45;1.05;;;6.30;92.10;;;;;;4901730;29;20048;-79
2022/02/06 08:14:54;;;;;;;5.25;1.25;;;6.30;92.20;;;;;;4916606;29;20103;-78
2022/02/06 08:17:24;;;;;;;5.00;1.08;;;6.40;92.00;;;;;;4916784;29;20052;-79
2022/02/06 08:19:52;;;;;;;4.53;1.48;;;6.40;92.00;;;;;;4917111;29;20048;-80
2022/02/06 08:22:20;;;;;;;6.65;1.30;;;6.40;92.00;;;;;;4913711;29;20051;-78
2022/02/06 08:24:47;;;;;;;6.05;1.15;;;6.50;91.90;;;;;;4916447;29;20458;-78
2022/02/06 08:27:15;;;;;;;4.30;1.00;;;6.50;91.90;;;;;;4915872;29;20063;-78
2022/02/06 08:29:45;;;;;;;6.15;1.20;;;6.50;91.70;;;;;;4916625;29;20055;-78
2022/02/06 08:32:13;;;;;;;4.97;1.15;;;6.60;91.80;;;;;;4917165;29;20056;-79
2022/02/06 08:34:41;;;;;;;3.95;1.00;;;6.60;91.70;;;;;;4915161;29;20506;-78
2022/02/06 08:37:08;;;;;;;4.43;1.10;;;6.60;91.70;;;;;;4904319;29;20140;-78
2022/02/06 08:39:39;;;;;;;4.55;1.00;;;6.60;91.60;;;;;;4914397;29;20410;-78
2022/02/06 08:42:09;;;;;;;7.72;1.15;;;6.70;91.60;;;;;;4931420;29;20055;-77
2022/02/06 08:44:37;;;;;;;5.22;1.00;;;6.70;91.60;;;;;;4936166;29;20076;-76
2022/02/06 08:47:07;;;;;;;7.20;1.30;;;6.70;91.60;;;;;;4932135;29;20044;-77
2022/02/06 08:49:35;;;;;;;4.35;1.17;;;6.70;91.60;;;;;;4897892;29;20127;-78
2022/02/06 08:52:02;;;;;;;4.15;1.27;;;6.70;91.70;;;;;;4897709;29;20140;-80
2022/02/06 08:54:32;;;;;;;5.10;1.02;;;6.70;91.70;;;;;;4930785;29;20512;-78
2022/02/06 08:57:02;;;;;;;4.88;1.00;;;6.80;91.70;;;;;;4935410;29;20058;-76
2022/02/06 08:59:30;;;;;;;4.28;1.10;;;6.80;91.70;;;;;;4926498;29;20409;-78
2022/02/06 09:01:59;;;;;;;5.25;1.30;;;6.90;91.50;;;;;;4916171;29;20052;-79
2022/02/06 09:04:29;;;;;;;5.20;1.30;;;6.90;91.40;;;;;;4916498;29;20059;-79
2022/02/06 09:07:00;;;;;;;5.18;1.05;;;7.00;91.40;;;;;;4915676;29;20480;-77
2022/02/06 09:09:28;;;;;;;4.03;1.02;;;7.00;91.30;;;;;;4916251;29;20048;-77
2022/02/06 09:11:55;;;;;;;11.85;4.40;;;7.00;91.30;;;;;;4916181;29;20139;-83
2022/02/06 09:14:24;;;;;;;6.88;2.10;;;7.00;91.20;;;;;;4882718;29;20129;-80
2022/02/06 09:16:52;;;;;;;5.57;1.25;;;7.10;91.20;;;;;;4901313;29;20045;-78
2022/02/06 09:19:20;;;;;;;6.28;1.10;;;7.10;90.90;;;;;;4917540;29;20080;-81
2022/02/06 09:21:48;;;;;;;4.70;1.10;;;7.10;91.00;;;;;;4920098;29;20122;-79
2022/02/06 09:24:15;;;;;;;5.43;1.00;;;7.20;90.70;;;;;;4920137;29;20138;-82
2022/02/06 09:26:43;;;;;;;5.35;1.33;;;7.20;90.80;;;;;;4920132;29;20048;-80
2022/02/06 09:29:10;;;;;;;4.50;1.25;;;7.20;90.70;;;;;;4921677;29;20048;-80
2022/02/06 09:31:37;;;;;;;5.18;1.20;;;7.20;90.70;;;;;;4939110;29;20126;-81
2022/02/06 09:36:31;;;;;;;7.53;1.55;;;7.20;90.50;;;;;;4900925;29;20060;-83
2022/02/06 09:39:00;;;;;;;4.20;0.88;;;7.30;90.60;;;;;;4907817;29;20176;-79
2022/02/06 09:41:27;;;;;;;5.05;0.93;;;7.20;90.40;;;;;;4919645;29;20072;-78
2022/02/06 09:43:56;;;;;;;5.18;1.10;;;7.30;90.40;;;;;;4919612;29;20462;-80
2022/02/06 09:46:24;;;;;;;5.60;1.35;;;7.30;90.30;;;;;;4915573;29;20055;-78
2022/02/06 09:48:52;;;;;;;4.50;1.15;;;7.30;90.40;;;;;;4920264;29;20147;-81
2022/02/06 09:51:20;;;;;;;4.18;1.10;;;7.30;90.50;;;;;;4919272;29;20048;-80
2022/02/06 09:53:47;;;;;;;4.47;1.15;;;7.30;90.50;;;;;;4934375;29;20134;-81
2022/02/06 09:56:18;;;;;;;4.85;1.20;;;7.40;90.50;;;;;;4938957;29;20405;-83
2022/02/06 09:58:59;;;;;;;5.03;1.17;;;7.40;90.80;;;;;;4924026;29;20075;-80
2022/02/06 10:01:27;;;;;;;5.65;1.85;;;7.50;91.30;;;;;;4917475;29;20070;-78
2022/02/06 10:04:04;;;;;;;6.93;1.10;;;7.60;91.20;;;;;;4919247;29;20052;-79
2022/02/06 10:06:40;;;;;;;4.07;1.00;;;7.60;90.70;;;;;;4919227;29;20140;-78
2022/02/06 10:09:11;;;;;;;5.07;1.25;;;7.70;90.60;;;;;;4919042;29;20052;-78
2022/02/06 10:11:47;;;;;;;5.10;1.52;;;7.80;89.90;;;;;;4918781;29;20087;-79
2022/02/06 10:14:14;;;;;;;4.53;1.17;;;7.70;89.10;;;;;;4919217;29;20131;-77
2022/02/06 10:16:41;;;;;;;3.75;0.90;;;7.70;88.90;;;;;;4931368;29;20127;-79
2022/02/06 10:19:09;;;;;;;3.03;0.93;;;7.80;88.80;;;;;;4938048;29;20461;-79
2022/02/06 10:21:36;;;;;;;6.65;1.20;;;7.80;88.60;;;;;;4937996;29;20067;-77
2022/02/06 10:24:11;;;;;;;4.43;1.20;;;7.70;88.40;;;;;;4925633;29;20577;-81
2022/02/06 10:26:45;;;;;;;4.43;1.30;;;7.80;88.40;;;;;;4918595;29;20048;-76
2022/02/06 10:32:02;;;;;;;4.85;1.33;;;7.80;88.50;;;;;;4903809;29;20052;-81
2022/02/06 10:34:31;;;;;;;5.30;1.15;;;7.80;88.30;;;;;;4913097;29;20076;-79
2022/02/06 10:37:12;;;;;;;4.18;1.00;;;7.80;88.50;;;;;;4907845;29;20055;-80
2022/02/06 10:39:51;;;;;;;5.28;1.17;;;7.80;88.10;;;;;;4915990;29;20052;-78
2022/02/06 10:42:25;;;;;;;3.88;0.90;;;7.80;88.30;;;;;;4899740;29;20127;-78
2022/02/06 10:45:17;;;;;;;6.13;1.20;;;7.80;88.20;;;;;;4916248;29;20401;-80
2022/02/06 10:47:45;;;;;;;4.70;0.98;;;7.90;88.30;;;;;;4905008;29;20135;-79
2022/02/06 10:50:15;;;;;;;4.95;1.05;;;7.90;88.10;;;;;;4899611;29;20083;-78
2022/02/06 10:52:44;;;;;;;4.80;0.90;;;7.90;88.00;;;;;;4913544;29;20056;-78
2022/02/06 10:55:12;;;;;;;5.60;1.10;;;7.90;89.00;;;;;;4918700;29;20142;-80
2022/02/06 10:57:56;;;;;;;6.35;1.05;;;7.90;88.80;;;;;;4918106;29;20409;-81
2022/02/06 11:00:28;;;;;;;5.07;1.10;;;8.00;88.50;;;;;;4916316;29;20040;-81
2022/02/06 11:03:04;;;;;;;4.82;0.95;;;8.00;88.30;;;;;;4882649;29;20049;-81
2022/02/06 11:05:48;;;;;;;4.65;1.00;;;8.00;88.20;;;;;;4899206;29;20446;-81
2022/02/06 11:08:28;;;;;;;7.93;2.67;;;8.00;88.60;;;;;;4899127;29;20519;-80
2022/02/06 11:10:58;;;;;;;6.68;1.10;;;8.00;88.30;;;;;;4899197;29;20356;-80
2022/02/06 11:13:27;;;;;;;4.82;1.00;;;8.00;88.40;;;;;;4898351;29;20521;-80
2022/02/06 11:15:57;;;;;;;5.85;1.20;;;8.10;88.60;;;;;;4898975;29;20096;-79
2022/02/06 11:18:31;;;;;;;6.50;1.25;;;8.10;88.70;;;;;;4914703;29;20051;-82
2022/02/06 11:21:02;;;;;;;5.40;1.00;;;8.20;88.40;;;;;;4917994;29;20091;-82
2022/02/06 11:23:48;;;;;;;4.82;1.30;;;8.30;88.30;;;;;;4914112;29;20414;-80
2022/02/06 11:26:17;;;;;;;3.55;1.00;;;8.30;87.90;;;;;;4898147;29;20049;-83
2022/02/06 11:28:46;;;;;;;5.30;1.10;;;8.40;87.40;;;;;;4898849;29;20055;-82
2022/02/06 11:31:16;;;;;;;3.97;1.05;;;8.40;87.50;;;;;;4898635;29;20150;-80
2022/02/06 11:33:43;;;;;;;4.32;1.00;;;8.40;87.50;;;;;;4915165;29;20059;-82
2022/02/06 11:36:16;;;;;;;4.50;1.27;;;8.30;87.60;;;;;;4919737;29;20095;-82
2022/02/06 11:45:07;;;;;;;5.88;0.93;;;8.30;88.60;;;;;;4920316;29;20066;-84
2022/02/06 11:47:38;;;;;;;3.70;0.85;;;8.30;88.80;;;;;;4916991;29;20138;-81
2022/02/06 11:50:10;;;;;;;5.90;1.00;;;8.30;89.10;;;;;;4917556;29;20131;-80
2022/02/06 11:52:55;;;;;;;3.75;0.85;;;8.30;90.70;;;;;;4917145;29;20056;-80
2022/02/06 11:55:38;;;;;;;3.72;1.00;;;8.30;90.20;;;;;;4917332;29;20048;-80
2022/02/06 11:58:25;;;;;;;3.90;1.00;;;8.30;89.80;;;;;;4917100;29;20056;-80
2022/02/06 12:01:28;;;;;;;3.08;0.90;;;8.30;90.10;;;;;;4917144;29;20057;-81
2022/02/06 12:04:00;;;;;;;3.90;1.08;;;8.30;90.00;;;;;;4917189;29;20490;-85
2022/02/06 12:06:30;;;;;;;2.58;0.85;;;8.30;90.10;;;;;;4919078;29;20066;-86
2022/02/06 12:09:31;;;;;;;3.08;0.90;;;8.30;90.10;;;;;;4919763;29;20048;-84
2022/02/06 12:12:20;;;;;;;4.25;1.33;;;8.30;90.10;;;;;;4844517;29;20058;-85
2022/02/06 12:14:52;;;;;;;2.90;0.98;;;8.30;90.20;;;;;;4847551;29;20448;-84
2022/02/06 12:17:26;;;;;;;4.25;0.93;;;8.30;90.10;;;;;;4897069;29;20476;-84
2022/02/06 12:20:06;;;;;;;2.90;0.80;;;8.30;90.30;;;;;;4918131;29;20056;-84
2022/02/06 12:22:42;;;;;;;3.03;1.00;;;8.40;90.40;;;;;;4899332;29;20060;-82
2022/02/06 12:25:27;;;;;;;3.00;1.00;;;8.30;90.30;;;;;;4898910;29;20127;-83
2022/02/06 12:28:30;;;;;;;4.00;1.00;;;8.30;90.30;;;;;;4898689;29;20061;-82
2022/02/06 12:31:27;;;;;;;3.53;1.20;;;8.30;90.30;;;;;;4899770;29;20057;-80
2022/02/06 12:34:10;;;;;;;3.85;0.90;;;8.40;90.30;;;;;;4917240;29;20048;-80
2022/02/06 12:37:07;;;;;;;3.88;1.00;;;8.40;90.30;;;;;;4912164;29;20048;-80
2022/02/06 12:39:37;;;;;;;5.68;1.33;;;8.40;90.40;;;;;;4916668;29;20063;-78
2022/02/06 12:42:09;;;;;;;4.07;1.02;;;8.40;90.50;;;;;;4916040;29;20175;-79
2022/02/06 12:44:37;;;;;;;3.72;0.85;;;8.40;90.20;;;;;;4916319;29;20104;-79
2022/02/06 12:47:12;;;;;;;5.50;1.00;;;8.40;90.20;;;;;;4916422;29;20075;-78
2022/02/06 12:49:42;;;;;;;2.20;0.70;;;8.50;90.20;;;;;;4919597;29;20055;-78
2022/02/06 12:52:09;;;;;;;3.08;0.90;;;8.50;90.10;;;;;;4920024;29;20056;-78
2022/02/06 12:54:36;;;;;;;2.85;0.93;;;8.50;89.70;;;;;;4907119;29;20095;-78
2022/02/06 12:57:04;;;;;;;4.53;2.10;;;8.50;89.90;;;;;;4901259;29;20522;-79
2022/02/06 12:59:33;;;;;;;4.78;1.00;;;8.50;89.80;;;;;;4911025;29;20078;-80
2022/02/06 13:02:01;;;;;;;2.42;0.73;;;8.50;89.50;;;;;;4904110;29;20065;-78
2022/02/06 13:04:32;;;;;;;3.40;0.85;;;8.60;89.80;;;;;;4901298;29;20088;-78
2022/02/06 13:07:05;;;;;;;4.03;1.20;;;8.60;89.40;;;;;;4901301;29;20531;-80
2022/02/06 13:09:37;;;;;;;3.00;1.00;;;8.60;89.20;;;;;;4901369;29;20136;-79
2022/02/06 13:12:13;;;;;;;3.42;0.70;;;8.60;89.30;;;;;;4901611;29;20053;-81
2022/02/06 13:14:56;;;;;;;3.47;0.85;;;8.70;89.10;;;;;;4913210;29;20052;-80
2022/02/06 13:17:41;;;;;;;3.58;0.90;;;8.70;89.00;;;;;;4919803;29;20044;-79
2022/02/06 13:20:24;;;;;;;3.45;0.90;;;8.70;88.80;;;;;;4920079;29;20048;-81
2022/02/06 13:22:59;;;;;;;2.95;0.80;;;8.70;88.70;;;;;;4920161;29;20048;-81
2022/02/06 13:25:46;;;;;;;3.40;0.80;;;8.70;88.60;;;;;;4901849;29;20108;-81
2022/02/06 13:28:31;;;;;;;2.60;0.73;;;8.80;88.50;;;;;;4900840;29;20127;-80
2022/02/06 13:31:17;;;;;;;1.92;0.73;;;8.80;88.80;;;;;;4916164;29;20048;-80
2022/02/06 13:33:54;;;;;;;2.88;0.80;;;8.80;88.70;;;;;;4920048;29;20058;-82
2022/02/06 13:36:27;;;;;;;2.45;0.63;;;8.80;89.30;;;;;;4920632;29;20107;-80
2022/02/06 13:38:59;;;;;;;3.05;0.70;;;8.80;89.60;;;;;;4906325;29;20169;-82
2022/02/06 13:41:31;;;;;;;3.88;1.55;;;8.90;90.00;;;;;;4917233;29;20052;-80
2022/02/06 13:43:59;;;;;;;11.93;4.13;;;8.80;89.90;;;;;;4919521;29;20048;-86
2022/02/06 13:46:28;;;;;;;4.03;0.73;;;8.80;90.20;;;;;;4904702;29;20059;-88
2022/02/06 13:48:57;;;;;;;2.72;0.75;;;8.80;90.20;;;;;;4903320;29;20059;-84
2022/02/06 13:51:30;;;;;;;2.05;0.60;;;8.80;90.50;;;;;;4903514;29;20147;-87
2022/02/06 13:54:03;;;;;;;2.78;1.00;;;8.80;90.40;;;;;;4904141;29;20071;-87
2022/02/06 13:56:31;;;;;;;1.30;0.60;;;8.70;90.60;;;;;;4903568;29;20059;-84
2022/02/06 13:59:01;;;;;;;2.55;0.50;;;8.80;90.70;;;;;;4902081;29;20508;-83
2022/02/06 14:01:40;;;;;;;1.65;0.50;;;8.70;91.10;;;;;;4902205;29;20582;-83
2022/02/06 14:04:19;;;;;;;1.88;0.50;;;8.70;91.00;;;;;;4902280;29;20414;-82
2022/02/06 14:06:52;;;;;;;2.00;0.50;;;8.70;91.20;;;;;;4901480;29;20087;-89
2022/02/06 14:09:29;;;;;;;1.55;0.50;;;8.70;91.30;;;;;;4904550;29;20048;-88
2022/02/06 14:12:03;;;;;;;3.75;0.70;;;8.70;91.50;;;;;;4903865;29;20048;-87
2022/02/06 14:14:32;;;;;;;2.67;0.70;;;8.70;91.50;;;;;;4903725;29;20048;-87
2022/02/06 14:17:00;;;;;;;2.35;0.60;;;8.70;91.80;;;;;;4903649;29;20136;-85
2022/02/06 14:19:36;;;;;;;3.40;0.98;;;8.70;92.10;;;;;;4903365;29;20131;-86
2022/02/06 14:22:05;;;;;;;2.50;0.70;;;8.60;92.30;;;;;;4903274;29;20087;-85
2022/02/06 14:24:51;;;;;;;1.85;0.57;;;8.60;92.40;;;;;;4903243;29;20495;-87
2022/02/06 14:27:33;;;;;;;1.77;0.50;;;8.60;93.00;;;;;;4903410;29;20135;-87
2022/02/06 14:30:08;;;;;;;1.77;0.45;;;8.60;93.30;;;;;;4918546;29;20070;-82
2022/02/06 14:32:35;;;;;;;1.88;0.60;;;8.60;93.60;;;;;;4920744;29;20083;-82
2022/02/06 14:35:09;;;;;;;2.15;0.60;;;8.50;94.40;;;;;;4919686;29;20090;-82
2022/02/06 14:37:49;;;;;;;2.20;0.60;;;8.40;95.10;;;;;;4919135;29;20059;-83
2022/02/06 14:40:36;;;;;;;1.30;0.40;;;8.40;95.90;;;;;;4902103;29;20108;-81
2022/02/06 14:43:11;;;;;;;1.08;0.43;;;8.30;96.40;;;;;;4901116;29;20076;-82
2022/02/06 14:45:45;;;;;;;1.08;0.40;;;8.30;97.00;;;;;;4900531;29;20057;-82
2022/02/06 14:48:13;;;;;;;1.05;0.45;;;8.20;97.80;;;;;;4900528;29;20048;-83
2022/02/06 14:50:40;;;;;;;1.23;0.50;;;8.10;98.20;;;;;;4909346;29;20078;-81
2022/02/06 14:53:07;;;;;;;2.33;0.60;;;8.00;98.40;;;;;;4918794;29;20090;-81
2022/02/06 14:55:36;;;;;;;1.88;0.52;;;8.00;98.90;;;;;;4919232;29;20140;-81
2022/02/06 14:58:03;;;;;;;1.73;0.50;;;7.90;99.40;;;;;;4919452;29;20052;-80
2022/02/06 15:00:30;;;;;;;1.00;0.40;;;7.80;99.60;;;;;;4918261;29;20091;-82
2022/02/06 15:02:57;;;;;;;0.90;0.50;;;7.80;99.90;;;;;;4919285;29;20131;-82
2022/02/06 15:05:24;;;;;;;1.95;0.43;;;7.70;99.90;;;;;;4918174;29;20044;-80
2022/02/06 15:07:51;;;;;;;2.20;0.45;;;7.70;99.90;;;;;;4916036;29;20063;-81
2022/02/06 15:10:18;;;;;;;1.77;0.50;;;7.60;99.90;;;;;;4918637;29;20131;-80
2022/02/06 15:12:47;;;;;;;1.40;0.50;;;7.60;99.90;;;;;;4918184;29;20147;-81
2022/02/06 15:15:16;;;;;;;1.35;0.40;;;7.50;99.90;;;;;;4919235;29;20473;-82
2022/02/06 15:17:43;;;;;;;1.15;0.50;;;7.50;99.90;;;;;;4919828;29;20044;-81
2022/02/06 15:20:11;;;;;;;1.73;0.60;;;7.40;99.90;;;;;;4906846;29;20091;-86
2022/02/06 15:22:38;;;;;;;3.10;1.20;;;7.40;99.90;;;;;;4920021;29;20090;-81
2022/02/06 15:25:07;;;;;;;2.33;0.70;;;7.30;99.90;;;;;;4906508;29;20053;-82
2022/02/06 15:27:34;;;;;;;1.73;0.52;;;7.30;99.90;;;;;;4919624;29;20048;-84
2022/02/06 15:30:02;;;;;;;1.40;0.40;;;7.20;99.90;;;;;;4920360;29;20468;-86
2022/02/06 15:32:29;;;;;;;2.53;0.60;;;7.20;99.90;;;;;;4920766;29;20131;-87
2022/02/06 15:34:56;;;;;;;1.75;0.60;;;7.10;99.90;;;;;;4919927;29;20194;-85
2022/02/06 15:37:28;;;;;;;2.22;0.52;;;7.10;99.90;;;;;;4919906;29;20063;-87
2022/02/06 15:39:58;;;;;;;0.82;0.40;;;7.00;99.90;;;;;;4919421;29;20052;-88
2022/02/06 15:42:25;;;;;;;0.73;0.30;;;7.00;99.90;;;;;;4915210;29;20040;-84
2022/02/06 15:44:52;;;;;;;1.83;0.50;;;7.00;99.90;;;;;;4919433;29;20058;-85
2022/02/06 15:47:20;;;;;;;1.88;0.52;;;6.90;99.90;;;;;;4919805;29;20473;-83
2022/02/06 15:49:47;;;;;;;1.20;0.50;;;6.80;99.90;;;;;;4917937;29;20474;-82
2022/02/06 15:52:14;;;;;;;1.38;0.50;;;6.80;99.90;;;;;;4912195;29;20123;-87
2022/02/06 15:54:41;;;;;;;1.35;0.50;;;6.10;99.90;;;;;;4919309;29;20139;-81
2022/02/06 15:57:09;;;;;;;2.22;0.55;;;6.80;99.90;;;;;;4929910;29;20142;-85
2022/02/06 15:59:36;;;;;;;1.15;0.45;;;6.70;99.90;;;;;;4926762;29;20387;-91
2022/02/06 16:02:04;;;;;;;1.45;0.50;;;6.70;99.90;;;;;;4919742;29;20159;-84
2022/02/06 16:04:32;;;;;;;1.70;0.40;;;6.70;99.90;;;;;;4920570;29;20055;-87
2022/02/06 16:06:59;;;;;;;1.13;0.40;;;7.00;99.90;;;;;;4920501;29;20135;-74
2022/02/06 16:09:29;;;;;;;1.75;0.40;;;6.70;99.90;;;;;;4916673;29;20048;-75
2022/02/06 16:11:56;;;;;;;1.20;0.50;;;6.80;99.90;;;;;;4918931;29;20048;-87
2022/02/06 16:14:23;;;;;;;0.95;0.30;;;6.40;99.90;;;;;;4910912;29;20047;-89
2022/02/06 16:16:50;;;;;;;1.83;0.60;;;6.60;99.90;;;;;;4920440;29;20058;-86
2022/02/06 16:19:17;;;;;;;1.70;0.50;;;6.60;99.90;;;;;;4919945;29;20111;-88
2022/02/06 16:21:46;;;;;;;0.93;0.47;;;6.60;99.90;;;;;;4920344;29;20476;-88
2022/02/06 16:24:13;;;;;;;1.45;0.40;;;6.60;99.90;;;;;;4919638;29;20080;-86
2022/02/06 16:26:40;;;;;;;1.08;0.50;;;6.50;99.90;;;;;;4920144;29;20471;-84
2022/02/06 16:29:07;;;;;;;6.97;2.45;;;6.50;99.90;;;;;;4913248;29;20079;-85
2022/02/06 16:31:34;;;;;;;2.42;0.90;;;6.50;99.90;;;;;;4918874;29;20123;-85
2022/02/06 16:34:01;;;;;;;1.15;0.47;;;6.50;99.90;;;;;;4919180;29;20132;-85
2022/02/06 16:36:28;;;;;;;1.42;0.50;;;6.50;99.90;;;;;;4918910;29;20059;-86
2022/02/06 16:38:59;;;;;;;2.15;0.47;;;6.50;99.90;;;;;;4919262;29;20112;-85
2022/02/06 16:41:28;;;;;;;1.63;0.50;;;6.50;99.90;;;;;;4907441;29;20083;-85
2022/02/06 16:43:55;;;;;;;1.35;0.50;;;6.50;99.90;;;;;;4899887;29;20048;-82
2022/02/06 16:46:22;;;;;;;0.88;0.40;;;6.50;99.90;;;;;;4911337;29;20104;-89
2022/02/06 16:48:49;;;;;;;1.38;0.50;;;6.50;99.90;;;;;;4919932;29;20052;-86
2022/02/06 16:51:16;;;;;;;1.90;0.65;;;6.50;99.90;;;;;;4919757;29;20139;-87
2022/02/06 16:53:45;;;;;;;1.33;0.40;;;6.50;99.90;;;;;;4915696;29;20144;-85
2022/02/06 16:56:15;;;;;;;2.10;0.65;;;6.60;99.90;;;;;;4919136;29;20095;-85
2022/02/06 16:58:43;;;;;;;1.27;0.60;;;6.50;99.90;;;;;;4917734;29;20059;-85
2022/02/06 17:01:11;;;;;;;1.27;0.50;;;6.50;99.90;;;;;;4918031;29;20139;-84
2022/02/06 17:03:38;;;;;;;2.28;0.60;;;6.50;99.90;;;;;;4918344;29;20131;-84
2022/02/06 17:06:06;;;;;;;2.17;0.70;;;6.50;99.90;;;;;;4917581;29;20050;-86
2022/02/06 17:08:36;;;;;;;1.80;0.55;;;6.60;99.90;;;;;;4918296;29;20135;-84
2022/02/06 17:11:06;;;;;;;1.98;0.68;;;6.60;99.90;;;;;;4918120;29;20048;-84
2022/02/06 17:13:35;;;;;;;0.98;0.40;;;6.60;99.90;;;;;;4919468;29;20135;-84
2022/02/06 17:16:02;;;;;;;1.70;0.60;;;6.60;99.90;;;;;;4905449;29;20135;-84
2022/02/06 17:18:30;;;;;;;1.13;0.50;;;6.60;99.90;;;;;;4907067;29;20111;-81
2022/02/06 17:20:57;;;;;;;1.92;0.55;;;6.60;99.90;;;;;;4915008;29;20108;-82
2022/02/06 17:23:24;;;;;;;1.58;0.40;;;6.60;99.90;;;;;;4898085;29;20052;-81
2022/02/06 17:25:51;;;;;;;2.30;0.60;;;6.70;99.90;;;;;;4907466;29;20058;-82
2022/02/06 17:28:18;;;;;;;1.33;0.50;;;6.70;99.90;;;;;;4917277;29;20502;-80
2022/02/06 17:30:47;;;;;;;1.33;0.50;;;6.70;99.90;;;;;;4914185;29;20052;-81
2022/02/06 17:33:14;;;;;;;1.15;0.50;;;6.80;99.90;;;;;;4913805;29;20044;-81
2022/02/06 17:35:41;;;;;;;1.85;0.47;;;6.80;99.90;;;;;;4910696;29;20048;-82
2022/02/06 17:38:08;;;;;;;1.40;0.50;;;6.80;99.90;;;;;;4907132;29;20178;-80
2022/02/06 17:40:35;;;;;;;1.67;0.63;;;6.80;99.90;;;;;;4899933;29;20135;-81
2022/02/06 17:43:02;;;;;;;2.55;0.50;;;6.80;99.90;;;;;;4903229;29;20075;-82
2022/02/06 17:45:30;;;;;;;1.27;0.50;;;6.80;99.90;;;;;;4904295;29;20135;-81
2022/02/06 17:47:59;;;;;;;1.50;0.50;;;6.90;99.90;;;;;;4915486;29;20048;-81
2022/02/06 17:50:31;;;;;;;2.67;0.63;;;6.90;99.90;;;;;;4914888;29;20099;-79
2022/02/06 17:52:59;;;;;;;0.88;0.40;;;6.90;99.90;;;;;;4918789;29;20048;-79
2022/02/06 17:55:26;;;;;;;2.13;0.60;;;6.90;99.90;;;;;;4919120;29;20059;-79
2022/02/06 17:57:53;;;;;;;1.10;0.50;;;6.90;99.90;;;;;;4919077;29;20045;-80
2022/02/06 18:00:21;;;;;;;1.80;0.68;;;7.00;99.90;;;;;;4918485;29;20048;-78
2022/02/06 18:02:48;;;;;;;2.58;0.60;;;7.00;99.90;;;;;;4918290;29;20090;-80
2022/02/06 18:05:16;;;;;;;1.63;0.60;;;7.00;99.90;;;;;;4918589;29;20135;-82
2022/02/06 18:07:44;;;;;;;1.45;0.57;;;7.00;99.90;;;;;;4912621;29;20087;-84
2022/02/06 18:10:11;;;;;;;5.00;2.25;;;7.00;99.90;;;;;;4903791;29;20123;-81
2022/02/06 18:12:39;;;;;;;7.30;2.60;;;7.00;99.90;;;;;;4911778;29;20048;-82
2022/02/06 18:15:08;;;;;;;1.85;0.70;;;7.00;99.90;;;;;;4917469;29;20047;-79
2022/02/06 18:17:35;;;;;;;1.60;0.50;;;7.00;99.90;;;;;;4917087;29;20669;-81
2022/02/06 18:20:03;;;;;;;1.85;0.52;;;7.00;99.90;;;;;;4917333;29;20082;-81
2022/02/06 18:22:32;;;;;;;1.42;0.50;;;7.00;99.90;;;;;;4901881;29;20463;-79
2022/02/06 18:25:00;;;;;;;0.95;0.47;;;7.00;99.90;;;;;;4918402;29;20074;-82
2022/02/06 18:27:27;;;;;;;2.30;0.70;;;7.00;99.90;;;;;;4918535;29;20482;-80
2022/02/06 18:29:54;;;;;;;3.10;0.95;;;7.00;99.90;;;;;;4918001;29;20442;-80
2022/02/06 18:32:22;;;;;;;1.40;0.40;;;7.00;99.90;;;;;;4918581;29;20056;-79
2022/02/06 18:34:49;;;;;;;1.40;0.50;;;7.00;99.90;;;;;;4917946;29;20060;-80
2022/02/06 18:37:17;;;;;;;1.30;0.52;;;7.00;99.90;;;;;;4919115;29;20052;-79
2022/02/06 18:39:46;;;;;;;1.05;0.60;;;7.00;99.90;;;;;;4918525;29;20052;-79
2022/02/06 18:42:14;;;;;;;2.20;0.52;;;7.00;99.90;;;;;;4917778;29;20131;-79
2022/02/06 18:44:41;;;;;;;0.88;0.45;;;7.10;99.90;;;;;;4918399;29;20135;-80
2022/02/06 18:47:09;;;;;;;1.20;0.50;;;7.00;99.90;;;;;;4917945;29;20048;-79
2022/02/06 18:49:36;;;;;;;1.35;0.70;;;7.00;99.90;;;;;;4903116;29;20403;-81
2022/02/06 18:52:06;;;;;;;2.65;0.60;;;7.00;99.90;;;;;;4912281;29;20147;-81
2022/02/06 18:54:34;;;;;;;1.55;0.70;;;7.00;99.90;;;;;;4918319;29;20048;-78
2022/02/06 18:57:06;;;;;;;1.75;0.60;;;7.00;99.90;;;;;;4899319;29;20459;-80
2022/02/06 18:59:39;;;;;;;1.55;0.55;;;7.00;99.90;;;;;;4899744;29;20048;-81
2022/02/06 19:02:06;;;;;;;1.42;0.50;;;7.00;99.90;;;;;;4899335;29;20148;-79
2022/02/06 19:04:34;;;;;;;1.33;0.50;;;6.90;99.90;;;;;;4899387;29;20490;-77
2022/02/06 19:07:05;;;;;;;0.98;0.50;;;6.90;99.90;;;;;;4899434;29;20112;-79
2022/02/06 19:09:35;;;;;;;2.10;0.50;;;6.90;99.90;;;;;;4898646;29;20140;-79
2022/02/06 19:12:07;;;;;;;2.15;0.55;;;6.90;99.90;;;;;;4899017;29;20072;-79
2022/02/06 19:14:34;;;;;;;1.45;0.57;;;6.90;99.90;;;;;;4899459;29;20099;-81
2022/02/06 19:17:03;;;;;;;1.63;0.65;;;6.90;99.90;;;;;;4902013;29;20044;-81
2022/02/06 19:19:30;;;;;;;1.15;0.52;;;6.90;99.90;;;;;;4898339;29;20147;-80
2022/02/06 19:21:57;;;;;;;1.92;0.60;;;6.90;99.90;;;;;;4897892;29;20059;-80
2022/02/06 19:24:25;;;;;;;2.50;0.40;;;6.90;99.90;;;;;;4899482;29;20080;-80
2022/02/06 19:26:52;;;;;;;1.42;0.50;;;7.00;99.90;;;;;;4909348;29;20091;-80
2022/02/06 19:29:22;;;;;;;1.05;0.40;;;6.90;99.90;;;;;;4917776;29;20088;-80